createdAt,value
2023-06-19T00:01:11.315Z,7.03
2023-06-19T00:03:38.523Z,7.50
2023-06-19T00:06:06.958Z,8.95
2023-06-19T00:08:34.300Z,9.23
2023-06-19T00:11:01.430Z,9.70
2023-06-19T00:13:28.670Z,9.30
2023-06-19T00:15:56.676Z,8.13
2023-06-19T00:18:23.891Z,7.53
2023-06-19T00:20:51.584Z,6.60
2023-06-19T00:23:18.854Z,7.03
2023-06-19T00:25:46.066Z,6.93
2023-06-19T00:28:15.063Z,6.90
2023-06-19T00:30:43.244Z,7.10
2023-06-19T00:33:10.679Z,6.40
2023-06-19T00:35:38.200Z,6.80
2023-06-19T00:38:06.893Z,5.20
2023-06-19T00:40:35.394Z,5.80
2023-06-19T00:43:03.923Z,5.93
2023-06-19T00:45:31.259Z,5.90
2023-06-19T00:48:00.716Z,6.25
2023-06-19T00:50:31.140Z,6.77
2023-06-19T00:53:00.016Z,7.05
2023-06-19T00:55:33.586Z,7.60
2023-06-19T00:58:01.759Z,7.78
2023-06-19T01:00:28.981Z,8.50
2023-06-19T01:02:58.636Z,7.63
2023-06-19T01:05:26.467Z,8.10
2023-06-19T01:08:03.602Z,8.30
2023-06-19T01:10:37.762Z,7.75
2023-06-19T01:13:24.018Z,7.30
2023-06-19T01:15:51.675Z,6.53
2023-06-19T01:18:19.016Z,6.72
2023-06-19T01:20:46.606Z,6.72
2023-06-19T01:23:14.060Z,6.50
2023-06-19T01:25:41.337Z,7.47
2023-06-19T01:28:12.875Z,7.10
2023-06-19T01:30:42.231Z,7.50
2023-06-19T01:33:29.806Z,8.00
2023-06-19T01:35:58.785Z,7.82
2023-06-19T01:38:30.030Z,8.10
2023-06-19T01:40:58.955Z,7.63
2023-06-19T01:43:27.397Z,7.28
2023-06-19T01:45:54.783Z,7.45
2023-06-19T01:48:22.141Z,6.88
2023-06-19T01:50:50.840Z,7.45
2023-06-19T01:53:18.148Z,7.27
2023-06-19T01:55:47.348Z,7.25
2023-06-19T01:58:14.664Z,6.25
2023-06-19T02:00:41.933Z,6.40
2023-06-19T02:03:09.275Z,7.18
2023-06-19T02:05:40.645Z,6.30
2023-06-19T02:08:08.141Z,6.50
2023-06-19T02:10:37.737Z,6.15
2023-06-19T02:13:05.092Z,6.63
2023-06-19T02:15:32.282Z,5.93
2023-06-19T02:18:01.246Z,6.50
2023-06-19T02:20:29.263Z,6.90
2023-06-19T02:22:59.128Z,6.70
2023-06-19T02:25:26.424Z,6.45
2023-06-19T02:27:53.720Z,7.20
2023-06-19T02:30:22.078Z,7.33
2023-06-19T02:32:50.360Z,6.32
2023-06-19T02:35:18.393Z,5.88
2023-06-19T02:37:47.607Z,6.25
2023-06-19T02:40:15.485Z,7.00
2023-06-19T02:42:43.775Z,7.23
2023-06-19T02:45:11.101Z,7.75
2023-06-19T02:47:38.431Z,7.97
2023-06-19T02:50:06.627Z,8.32
2023-06-19T02:52:33.859Z,8.25
2023-06-19T02:55:01.133Z,7.33
2023-06-19T02:57:28.627Z,8.23
2023-06-19T02:59:55.860Z,7.90
2023-06-19T03:02:23.138Z,7.15
2023-06-19T03:04:51.312Z,6.72
2023-06-19T03:07:18.531Z,6.27
2023-06-19T03:09:45.807Z,6.68
2023-06-19T03:12:14.198Z,6.65
2023-06-19T03:14:41.928Z,6.68
2023-06-19T03:17:09.489Z,6.78
2023-06-19T03:19:36.865Z,7.80
2023-06-19T03:22:05.394Z,7.40
2023-06-19T03:24:33.315Z,6.72
2023-06-19T03:27:14.090Z,7.13
2023-06-19T03:29:41.342Z,7.63
2023-06-19T03:32:10.494Z,6.87
2023-06-19T03:34:37.858Z,8.63
2023-06-19T03:37:08.654Z,8.75
2023-06-19T03:39:36.808Z,8.65
2023-06-19T03:42:08.275Z,7.57
2023-06-19T03:44:35.935Z,8.23
2023-06-19T03:47:03.254Z,8.45
2023-06-19T03:49:30.988Z,8.38
2023-06-19T03:51:58.191Z,7.50
2023-06-19T03:54:27.232Z,10.30
2023-06-19T03:56:54.477Z,8.53
2023-06-19T03:59:21.837Z,7.45
2023-06-19T04:01:49.084Z,7.38
2023-06-19T04:04:17.979Z,6.75
2023-06-19T04:06:45.227Z,7.75
2023-06-19T04:09:13.840Z,7.57
2023-06-19T04:11:41.036Z,7.65
2023-06-19T04:14:08.264Z,8.25
2023-06-19T04:16:37.189Z,7.25
2023-06-19T04:19:04.500Z,7.53
2023-06-19T04:21:31.710Z,7.50
2023-06-19T04:23:59.091Z,7.35
2023-06-19T04:26:26.452Z,7.03
2023-06-19T04:28:54.591Z,7.22
2023-06-19T04:31:22.549Z,7.75
2023-06-19T04:33:49.863Z,7.33
2023-06-19T04:36:17.004Z,7.20
2023-06-19T04:38:46.402Z,8.05
2023-06-19T04:41:14.082Z,6.57
2023-06-19T04:43:42.740Z,6.68
2023-06-19T04:46:10.004Z,7.43
2023-06-19T04:48:37.901Z,6.53
2023-06-19T04:51:05.302Z,5.97
2023-06-19T04:53:32.680Z,6.40
2023-06-19T04:56:01.538Z,6.88
2023-06-19T04:58:29.926Z,6.50
2023-06-19T05:00:57.123Z,6.45
2023-06-19T05:03:24.378Z,6.70
2023-06-19T05:05:51.912Z,6.13
2023-06-19T05:08:19.159Z,5.43
2023-06-19T05:10:46.758Z,6.00
2023-06-19T05:13:14.044Z,6.40
2023-06-19T05:15:41.246Z,6.07
2023-06-19T05:18:08.772Z,5.88
2023-06-19T05:20:36.013Z,8.00
2023-06-19T05:23:03.205Z,7.33
2023-06-19T05:25:30.510Z,6.70
2023-06-19T05:27:57.710Z,6.93
2023-06-19T05:30:25.120Z,7.05
2023-06-19T05:32:52.725Z,7.13
2023-06-19T05:35:20.134Z,5.87
2023-06-19T05:37:47.383Z,6.05
2023-06-19T05:40:14.992Z,8.18
2023-06-19T05:42:42.197Z,6.80
2023-06-19T05:45:09.722Z,6.47
2023-06-19T05:47:37.132Z,6.10
2023-06-19T05:50:04.585Z,6.00
2023-06-19T05:52:31.815Z,6.45
2023-06-19T05:54:59.657Z,6.28
2023-06-19T05:57:27.061Z,5.93
2023-06-19T05:59:54.284Z,5.97
2023-06-19T06:02:21.710Z,5.95
2023-06-19T06:04:49.229Z,5.55
2023-06-19T06:07:16.738Z,5.65
2023-06-19T06:09:44.111Z,6.00
2023-06-19T06:12:11.535Z,6.40
2023-06-19T06:14:38.800Z,5.50
2023-06-19T06:17:07.314Z,5.75
2023-06-19T06:19:34.629Z,5.88
2023-06-19T06:22:01.941Z,5.97
2023-06-19T06:24:29.217Z,6.03
2023-06-19T06:26:56.866Z,7.07
2023-06-19T06:29:24.177Z,6.05
2023-06-19T06:31:53.646Z,6.28
2023-06-19T06:34:20.867Z,6.38
2023-06-19T06:37:00.991Z,5.80
2023-06-19T06:39:33.047Z,6.00
2023-06-19T06:42:00.266Z,6.75
2023-06-19T06:44:28.003Z,5.90
2023-06-19T06:46:56.571Z,6.18
2023-06-19T06:49:23.839Z,6.40
2023-06-19T06:51:51.069Z,5.63
2023-06-19T06:54:18.375Z,6.68
2023-06-19T06:56:48.928Z,6.32
2023-06-19T06:59:18.910Z,6.75
2023-06-19T07:01:46.089Z,6.17
2023-06-19T07:04:13.382Z,6.03
2023-06-19T07:06:40.581Z,6.45
2023-06-19T07:09:08.141Z,7.25
2023-06-19T07:11:35.400Z,6.85
2023-06-19T07:14:03.828Z,6.93
2023-06-19T07:16:31.095Z,6.90
2023-06-19T07:18:58.400Z,6.72
2023-06-19T07:21:25.897Z,6.63
2023-06-19T07:23:53.445Z,6.85
2023-06-19T07:26:20.827Z,7.40
2023-06-19T07:28:48.104Z,6.72
2023-06-19T07:31:15.256Z,7.20
2023-06-19T07:33:42.534Z,6.85
2023-06-19T07:36:14.968Z,7.57
2023-06-19T07:38:43.583Z,7.43
2023-06-19T07:41:12.130Z,6.85
2023-06-19T07:43:39.717Z,6.90
2023-06-19T07:46:07.024Z,7.10
2023-06-19T07:48:34.308Z,7.18
2023-06-19T07:51:01.497Z,7.67
2023-06-19T07:53:28.889Z,6.68
2023-06-19T07:55:56.216Z,6.95
2023-06-19T07:58:23.575Z,6.82
2023-06-19T08:00:50.799Z,6.68
2023-06-19T08:03:18.218Z,6.23
2023-06-19T08:05:45.546Z,6.53
2023-06-19T08:08:14.413Z,7.43
2023-06-19T08:10:42.197Z,7.10
2023-06-19T08:13:09.482Z,7.22
2023-06-19T08:15:36.635Z,6.73
2023-06-19T08:18:03.967Z,6.95
2023-06-19T08:20:31.676Z,6.53
2023-06-19T08:22:58.907Z,7.07
2023-06-19T08:25:26.182Z,7.60
2023-06-19T08:27:54.092Z,6.60
2023-06-19T08:30:21.351Z,7.30
2023-06-19T08:32:49.378Z,7.28
2023-06-19T08:35:16.849Z,6.70
2023-06-19T08:37:44.797Z,6.60
2023-06-19T08:40:16.015Z,6.70
2023-06-19T08:42:44.581Z,7.15
2023-06-19T08:45:12.099Z,7.00
2023-06-19T08:47:41.895Z,7.07
2023-06-19T08:50:09.432Z,7.43
2023-06-19T08:52:36.685Z,6.37
2023-06-19T08:55:06.693Z,6.60
2023-06-19T08:57:35.573Z,6.78
2023-06-19T09:00:04.204Z,6.93
2023-06-19T09:02:41.870Z,7.75
2023-06-19T09:05:19.743Z,7.07
2023-06-19T09:07:56.623Z,6.38
2023-06-19T09:10:25.153Z,6.65
2023-06-19T09:13:02.955Z,7.47
2023-06-19T09:15:32.971Z,6.70
2023-06-19T09:18:12.595Z,6.40
2023-06-19T09:20:45.402Z,5.80
2023-06-19T09:23:13.608Z,5.53
2023-06-19T09:25:52.488Z,5.03
2023-06-19T09:28:27.960Z,5.70
2023-06-19T09:31:00.468Z,4.90
2023-06-19T09:33:30.679Z,5.10
2023-06-19T09:36:00.272Z,5.25
2023-06-19T09:38:32.648Z,5.22
2023-06-19T09:41:02.605Z,4.75
2023-06-19T09:43:44.358Z,4.77
2023-06-19T09:46:15.291Z,4.85
2023-06-19T09:48:44.809Z,4.90
2023-06-19T09:51:19.364Z,5.10
2023-06-19T09:53:48.113Z,4.88
2023-06-19T09:56:17.442Z,5.33
2023-06-19T09:58:45.882Z,4.70
2023-06-19T10:01:14.443Z,4.93
2023-06-19T10:03:41.996Z,4.93
2023-06-19T10:06:15.407Z,5.15
2023-06-19T10:08:44.715Z,4.60
2023-06-19T10:11:12.538Z,4.85
2023-06-19T10:13:42.626Z,4.95
2023-06-19T10:16:21.925Z,4.20
2023-06-19T10:18:49.404Z,4.55
2023-06-19T10:21:18.619Z,4.87
2023-06-19T10:23:58.819Z,4.60
2023-06-19T10:26:36.698Z,4.30
2023-06-19T10:29:15.512Z,4.10
2023-06-19T10:31:42.994Z,4.80
2023-06-19T10:34:10.254Z,4.30
2023-06-19T10:36:37.570Z,4.57
2023-06-19T10:39:05.560Z,4.65
2023-06-19T10:41:33.203Z,4.35
2023-06-19T10:44:05.705Z,4.80
2023-06-19T10:46:35.044Z,4.53
2023-06-19T10:49:05.342Z,4.70
2023-06-19T10:51:36.943Z,4.40
2023-06-19T10:54:04.452Z,4.80
2023-06-19T10:56:31.835Z,4.47
2023-06-19T10:59:04.511Z,4.40
2023-06-19T11:01:40.002Z,4.57
2023-06-19T11:04:09.072Z,5.05
2023-06-19T11:06:37.380Z,4.40
2023-06-19T11:09:09.125Z,4.30
2023-06-19T11:11:41.678Z,4.47
2023-06-19T11:14:10.043Z,4.47
2023-06-19T11:16:48.277Z,4.38
2023-06-19T11:19:20.861Z,4.20
2023-06-19T11:21:52.882Z,4.25
2023-06-19T11:24:21.900Z,4.30
2023-06-19T11:26:51.464Z,4.32
2023-06-19T11:29:21.517Z,4.85
2023-06-19T11:31:49.905Z,4.22
2023-06-19T11:34:20.930Z,4.60
2023-06-19T11:36:51.501Z,5.10
2023-06-19T11:39:20.287Z,4.80
2023-06-19T11:41:47.993Z,4.63
2023-06-19T11:44:16.166Z,4.40
2023-06-19T11:46:43.898Z,4.70
2023-06-19T11:49:22.018Z,4.30
2023-06-19T11:51:49.341Z,4.45
2023-06-19T11:54:16.796Z,4.22
2023-06-19T11:56:44.561Z,5.05
2023-06-19T11:59:11.935Z,4.53
2023-06-19T12:01:39.724Z,4.03
2023-06-19T12:04:07.518Z,4.72
2023-06-19T12:06:36.800Z,4.70
2023-06-19T12:09:05.992Z,4.40
2023-06-19T12:11:33.393Z,4.60
2023-06-19T12:14:01.422Z,4.60
2023-06-19T12:16:29.766Z,4.32
2023-06-19T12:18:57.161Z,4.47
2023-06-19T12:21:35.724Z,4.47
2023-06-19T12:24:06.117Z,4.80
2023-06-19T12:26:38.150Z,4.47
2023-06-19T12:29:06.906Z,4.60
2023-06-19T12:31:40.241Z,4.82
2023-06-19T12:36:37.954Z,4.72
2023-06-19T12:39:10.441Z,4.50
2023-06-19T12:41:37.819Z,4.07
2023-06-19T12:44:05.043Z,4.03
2023-06-19T12:46:33.492Z,4.18
2023-06-19T12:49:01.091Z,4.28
2023-06-19T12:51:28.356Z,4.73
2023-06-19T12:53:55.571Z,4.40
2023-06-19T12:56:22.913Z,4.70
2023-06-19T12:58:50.139Z,4.05
2023-06-19T13:01:17.579Z,4.65
2023-06-19T13:03:44.988Z,4.37
2023-06-19T13:06:12.305Z,4.40
2023-06-19T13:08:39.503Z,5.47
2023-06-19T13:11:06.980Z,5.03
2023-06-19T13:13:34.239Z,4.72
2023-06-19T13:16:01.614Z,4.90
2023-06-19T13:18:28.879Z,4.32
2023-06-19T13:20:56.284Z,4.70
2023-06-19T13:23:23.424Z,4.10
2023-06-19T13:25:51.119Z,4.57
2023-06-19T13:28:18.835Z,3.93
2023-06-19T13:30:46.063Z,4.65
2023-06-19T13:33:13.350Z,4.45
2023-06-19T13:35:40.605Z,4.35
2023-06-19T13:38:08.109Z,4.47
2023-06-19T13:40:35.380Z,5.03
2023-06-19T13:43:04.714Z,4.93
2023-06-19T13:45:31.910Z,4.25
2023-06-19T13:47:59.257Z,4.60
2023-06-19T13:50:26.714Z,4.82
2023-06-19T13:52:54.739Z,4.20
2023-06-19T13:55:22.069Z,4.60
2023-06-19T13:57:49.409Z,4.40
2023-06-19T14:00:17.111Z,4.10
2023-06-19T14:02:44.437Z,4.85
2023-06-19T14:05:12.329Z,5.20
2023-06-19T14:07:41.576Z,4.50
2023-06-19T14:10:09.457Z,4.82
2023-06-19T14:12:36.697Z,4.93
2023-06-19T14:15:04.096Z,5.22
2023-06-19T14:17:31.382Z,4.40
2023-06-19T14:19:58.861Z,4.40
2023-06-19T14:22:26.168Z,4.95
2023-06-19T14:25:00.372Z,4.57
2023-06-19T14:27:27.735Z,5.03
2023-06-19T14:29:58.202Z,4.83
2023-06-19T14:32:25.691Z,4.78
2023-06-19T14:34:53.066Z,4.85
2023-06-19T14:37:20.599Z,4.78
2023-06-19T14:39:47.913Z,4.60
2023-06-19T14:42:15.086Z,4.50
2023-06-19T14:44:42.431Z,4.90
2023-06-19T14:47:10.029Z,4.45
2023-06-19T14:49:37.267Z,4.85
2023-06-19T14:52:04.990Z,4.68
2023-06-19T14:54:32.293Z,4.90
2023-06-19T14:56:59.800Z,4.90
2023-06-19T14:59:27.072Z,5.03
2023-06-19T15:01:54.334Z,4.90
2023-06-19T15:04:21.557Z,5.22
2023-06-19T15:06:48.796Z,5.23
2023-06-19T15:09:16.154Z,4.57
2023-06-19T15:11:43.382Z,4.60
2023-06-19T15:14:10.692Z,5.38
2023-06-19T15:16:38.221Z,5.03
2023-06-19T15:19:05.672Z,4.70
2023-06-19T15:21:33.019Z,4.50
2023-06-19T15:24:00.486Z,5.00
2023-06-19T15:26:27.758Z,5.00
2023-06-19T15:28:55.041Z,5.22
2023-06-19T15:31:23.907Z,5.17
2023-06-19T15:33:51.568Z,5.30
2023-06-19T15:36:19.019Z,5.30
2023-06-19T15:38:46.421Z,4.97
2023-06-19T15:41:14.278Z,5.65
2023-06-19T15:43:42.847Z,4.83
2023-06-19T15:46:10.227Z,4.88
2023-06-19T15:48:37.632Z,4.95
2023-06-19T15:51:04.934Z,4.90
2023-06-19T15:53:32.135Z,5.38
2023-06-19T15:55:59.750Z,4.20
2023-06-19T15:58:26.897Z,5.03
2023-06-19T16:00:54.353Z,5.50
2023-06-19T16:03:22.239Z,5.75
2023-06-19T16:06:06.044Z,5.25
2023-06-19T16:08:35.620Z,5.10
2023-06-19T16:11:05.836Z,5.20
2023-06-19T16:13:33.679Z,5.03
2023-06-19T16:16:00.985Z,4.93
2023-06-19T16:18:28.258Z,4.90
2023-06-19T16:20:55.958Z,5.20
2023-06-19T16:23:23.221Z,5.10
2023-06-19T16:25:50.471Z,5.35
2023-06-19T16:28:18.072Z,4.97
2023-06-19T16:30:45.291Z,5.47
2023-06-19T16:33:12.990Z,4.73
2023-06-19T16:35:40.192Z,4.57
2023-06-19T16:38:07.678Z,5.53
2023-06-19T16:40:34.874Z,5.53
2023-06-19T16:43:02.102Z,5.05
2023-06-19T16:45:29.326Z,5.03
2023-06-19T16:47:56.688Z,5.28
2023-06-19T16:50:24.401Z,5.07
2023-06-19T16:52:52.044Z,4.82
2023-06-19T16:55:23.194Z,4.88
2023-06-19T16:57:51.244Z,5.30
2023-06-19T17:00:19.387Z,4.68
2023-06-19T17:02:48.040Z,5.53
2023-06-19T17:05:15.680Z,4.78
2023-06-19T17:07:42.960Z,5.45
2023-06-19T17:10:10.714Z,5.07
2023-06-19T17:12:37.982Z,4.75
2023-06-19T17:15:05.699Z,5.20
2023-06-19T17:17:36.066Z,5.00
2023-06-19T17:20:06.008Z,4.65
2023-06-19T17:22:33.243Z,5.27
2023-06-19T17:25:00.483Z,4.82
2023-06-19T17:27:27.748Z,5.28
2023-06-19T17:29:54.961Z,5.05
2023-06-19T17:32:22.177Z,5.43
2023-06-19T17:34:49.512Z,5.17
2023-06-19T17:37:16.808Z,5.55
2023-06-19T17:39:44.094Z,6.38
2023-06-19T17:42:11.306Z,5.13
2023-06-19T17:44:38.577Z,5.28
2023-06-19T17:47:05.871Z,5.60
2023-06-19T17:49:33.168Z,4.65
2023-06-19T17:52:00.360Z,4.82
2023-06-19T17:54:27.702Z,4.63
2023-06-19T17:56:54.916Z,5.00
2023-06-19T17:59:22.296Z,4.93
2023-06-19T18:01:50.958Z,5.10
2023-06-19T18:04:18.194Z,5.60
2023-06-19T18:06:45.389Z,5.43
2023-06-19T18:09:12.607Z,5.43
2023-06-19T18:11:39.852Z,4.83
2023-06-19T18:14:07.136Z,4.93
2023-06-19T18:16:36.770Z,5.97
2023-06-19T18:19:06.234Z,5.25
2023-06-19T18:21:33.559Z,5.10
2023-06-19T18:24:03.243Z,4.83
2023-06-19T18:26:32.297Z,4.80
2023-06-19T18:28:59.609Z,5.18
2023-06-19T18:31:27.287Z,5.68
2023-06-19T18:33:55.517Z,5.55
2023-06-19T18:36:23.032Z,5.23
2023-06-19T18:38:50.255Z,5.18
2023-06-19T18:41:17.511Z,5.57
2023-06-19T18:43:44.733Z,5.35
2023-06-19T18:46:12.411Z,5.32
2023-06-19T18:48:39.578Z,5.30
2023-06-19T18:51:06.860Z,5.30
2023-06-19T18:53:34.017Z,4.97
2023-06-19T18:56:01.327Z,5.18
2023-06-19T18:58:29.550Z,4.85
2023-06-19T19:00:57.340Z,5.00
2023-06-19T19:03:24.697Z,5.53
2023-06-19T19:05:52.014Z,5.50
2023-06-19T19:08:19.206Z,5.28
2023-06-19T19:10:46.448Z,5.13
2023-06-19T19:13:14.038Z,5.60
2023-06-19T19:15:41.542Z,6.43
2023-06-19T19:18:10.215Z,5.80
2023-06-19T19:20:37.540Z,5.90
2023-06-19T19:23:04.714Z,6.28
2023-06-19T19:25:33.475Z,5.80
2023-06-19T19:28:00.787Z,5.60
2023-06-19T19:30:28.555Z,6.05
2023-06-19T19:32:56.126Z,6.30
2023-06-19T19:35:23.538Z,6.38
2023-06-19T19:37:50.835Z,5.87
2023-06-19T19:40:18.415Z,6.15
2023-06-19T19:42:45.628Z,5.50
2023-06-19T19:45:12.870Z,5.50
2023-06-19T19:47:40.125Z,6.32
2023-06-19T19:50:07.922Z,6.30
2023-06-19T19:52:35.104Z,6.13
2023-06-19T19:55:02.296Z,6.22
2023-06-19T19:57:29.656Z,5.88
2023-06-19T19:59:57.124Z,5.78
2023-06-19T20:02:24.325Z,6.13
2023-06-19T20:04:53.173Z,6.53
2023-06-19T20:07:20.391Z,6.53
2023-06-19T20:09:47.604Z,6.68
2023-06-19T20:12:21.243Z,6.68
2023-06-19T20:14:49.910Z,6.40
2023-06-19T20:17:17.091Z,6.85
2023-06-19T20:19:44.308Z,6.78
2023-06-19T20:22:11.494Z,6.88
2023-06-19T20:24:39.045Z,7.30
2023-06-19T20:27:07.774Z,6.37
2023-06-19T20:29:35.058Z,6.90
2023-06-19T20:32:02.288Z,7.05
2023-06-19T20:34:29.615Z,7.60
2023-06-19T20:36:57.692Z,7.00
2023-06-19T20:39:25.107Z,6.47
2023-06-19T20:41:52.384Z,7.03
2023-06-19T20:44:19.663Z,7.30
2023-06-19T20:46:46.856Z,6.60
2023-06-19T20:49:14.246Z,6.90
2023-06-19T20:51:41.493Z,6.13
2023-06-19T20:54:08.905Z,7.18
2023-06-19T20:56:36.222Z,6.88
2023-06-19T20:59:03.590Z,6.50
2023-06-19T21:01:31.134Z,6.93
2023-06-19T21:04:02.528Z,6.43
2023-06-19T21:06:30.849Z,6.40
2023-06-19T21:09:00.445Z,6.32
2023-06-19T21:11:27.901Z,6.32
2023-06-19T21:13:55.039Z,6.57
2023-06-19T21:16:22.421Z,6.10
2023-06-19T21:18:49.626Z,5.97
2023-06-19T21:21:16.844Z,6.85
2023-06-19T21:23:44.075Z,8.27
2023-06-19T21:26:11.320Z,8.82
2023-06-19T21:28:38.558Z,9.13
2023-06-19T21:31:05.920Z,9.05
2023-06-19T21:33:33.694Z,9.65
2023-06-19T21:36:01.223Z,9.13
2023-06-19T21:38:31.930Z,9.43
2023-06-19T21:40:59.195Z,10.37
2023-06-19T21:43:27.716Z,10.57
2023-06-19T21:45:57.792Z,11.98
2023-06-19T21:48:29.635Z,11.80
2023-06-19T21:50:56.914Z,12.35
2023-06-19T21:53:24.356Z,12.03
2023-06-19T21:55:51.626Z,11.98
2023-06-19T21:58:18.892Z,12.65
2023-06-19T22:00:46.149Z,12.35
2023-06-19T22:03:13.391Z,12.35
2023-06-19T22:05:40.672Z,11.17
2023-06-19T22:08:07.918Z,11.43
2023-06-19T22:10:35.129Z,11.10
2023-06-19T22:13:02.367Z,9.70
2023-06-19T22:15:29.638Z,7.82
2023-06-19T22:17:56.898Z,7.50
2023-06-19T22:20:24.503Z,7.03
2023-06-19T22:22:51.880Z,7.13
2023-06-19T22:25:19.312Z,7.68
2023-06-19T22:27:47.388Z,9.07
2023-06-19T22:30:16.204Z,9.00
2023-06-19T22:32:43.931Z,8.77
2023-06-19T22:35:11.353Z,9.30
2023-06-19T22:37:39.125Z,9.63
2023-06-19T22:40:08.546Z,10.20
2023-06-19T22:42:39.113Z,11.33
2023-06-19T22:45:10.384Z,10.40
2023-06-19T22:47:41.615Z,10.73
2023-06-19T22:50:11.389Z,9.75
2023-06-19T22:52:39.116Z,10.38
2023-06-19T22:55:06.871Z,10.60
2023-06-19T22:57:36.306Z,8.98
2023-06-19T23:00:14.725Z,9.93
2023-06-19T23:02:43.446Z,9.57
2023-06-19T23:05:12.151Z,9.30
2023-06-19T23:07:40.389Z,9.73
2023-06-19T23:10:11.284Z,9.30
2023-06-19T23:12:38.697Z,9.48
2023-06-19T23:15:21.790Z,9.40
2023-06-19T23:17:49.130Z,7.97
2023-06-19T23:20:18.631Z,8.00
2023-06-19T23:22:48.845Z,7.43
2023-06-19T23:25:16.285Z,6.80
2023-06-19T23:27:43.633Z,6.47
2023-06-19T23:30:11.126Z,7.30
2023-06-19T23:32:38.420Z,6.93
2023-06-19T23:35:06.061Z,6.85
2023-06-19T23:37:33.376Z,6.55
2023-06-19T23:40:00.588Z,7.10
2023-06-19T23:42:27.839Z,7.40
2023-06-19T23:44:55.038Z,6.50
2023-06-19T23:47:22.352Z,6.95
2023-06-19T23:49:50.253Z,8.63
2023-06-19T23:52:23.933Z,6.68
2023-06-19T23:54:57.177Z,6.70
2023-06-19T23:57:24.336Z,6.00
2023-06-19T23:59:51.553Z,6.47
